Time;durP1;ratioP1;P1;durP2;ratioP2;P2;SDS_P1;SDS_P2;PMS_P1;PMS_P2;Temp;Humidity;BMP_temperature;BMP_pressure;BME280_temperature;BME280_humidity;BME280_pressure;Samples;Min_cycle;Max_cycle;Signal;HPM_P1;HPM_P2
2021/09/03 00:01:06;;;;;;;;;;;;;;;16.11;75.40;100571.22;4974432;28;19929;-63
2021/09/03 00:03:50;;;;;;;;;;;;;;;16.11;75.41;100571.22;4974244;28;19969;-63
2021/09/03 00:06:33;;;;;;;;;;;;;;;16.12;75.65;100575.56;4974181;28;19929;-62
2021/09/03 00:09:17;;;;;;;;;;;;;;;16.11;75.51;100562.50;4975268;28;20021;-63
2021/09/03 00:12:01;;;;;;;;;;;;;;;16.11;75.43;100563.38;4974735;28;19929;-63
2021/09/03 00:14:48;;;;;;;;;;;;;;;16.11;75.34;100565.09;4974878;28;19969;-63
2021/09/03 00:17:32;;;;;;;;;;;;;;;16.10;75.43;100563.38;4973596;28;19973;-62
2021/09/03 00:20:16;;;;;;;;;;;;;;;16.08;75.51;100566.00;4974861;28;19973;-62
2021/09/03 00:23:00;;;;;;;;;;;;;;;16.09;75.47;100569.47;4987883;28;19973;-61
2021/09/03 00:25:45;;;;;;;;;;;;;;;16.07;75.48;100571.19;4975069;28;20064;-61
2021/09/03 00:28:29;;;;;;;;;;;;;;;16.05;75.51;100568.59;4974950;28;19945;-61
2021/09/03 00:31:16;;;;;;;;;;;;;;;16.05;75.49;100570.31;4974977;28;19945;-61
2021/09/03 00:34:00;;;;;;;;;;;;;;;16.03;75.43;100564.25;4988029;28;20400;-61
2021/09/03 00:36:45;;;;;;;;;;;;;;;16.02;75.51;100555.50;4975125;28;20474;-62
2021/09/03 00:39:29;;;;;;;;;;;;;;;16.01;75.71;100558.13;4975034;28;19930;-61
2021/09/03 00:42:17;;;;;;;;;;;;;;;16.00;75.60;100554.63;4974468;28;19968;-63
2021/09/03 00:45:01;;;;;;;;;;;;;;;15.97;75.59;100545.06;4973963;28;19987;-63
2021/09/03 00:47:45;;;;;;;;;;;;;;;15.98;75.46;100554.63;4975001;28;19929;-63
2021/09/03 00:50:29;;;;;;;;;;;;;;;15.98;75.66;100548.53;4974686;28;19973;-64
2021/09/03 00:53:13;;;;;;;;;;;;;;;15.97;75.45;100546.78;4974266;28;19993;-63
2021/09/03 00:55:58;;;;;;;;;;;;;;;15.96;75.54;100542.44;4974173;28;20009;-63
2021/09/03 00:58:42;;;;;;;;;;;;;;;15.95;75.59;100540.69;4974858;28;20018;-63
2021/09/03 01:01:26;;;;;;;;;;;;;;;15.94;75.67;100539.81;4974072;28;19932;-63
2021/09/03 01:04:10;;;;;;;;;;;;;;;15.93;75.60;100537.22;4974755;28;20000;-63
2021/09/03 01:06:57;;;;;;;;;;;;;;;15.92;75.70;100533.69;4987828;28;19953;-63
2021/09/03 01:09:41;;;;;;;;;;;;;;;15.92;75.58;100527.63;4973469;28;19929;-63
2021/09/03 01:12:25;;;;;;;;;;;;;;;15.90;75.59;100530.22;4974386;28;20078;-62
2021/09/03 01:15:09;;;;;;;;;;;;;;;15.89;75.71;100522.38;4986984;28;19945;-61
2021/09/03 01:17:56;;;;;;;;;;;;;;;15.88;75.61;100520.63;4987411;28;19995;-62
2021/09/03 01:20:40;;;;;;;;;;;;;;;15.87;75.82;100524.13;4974937;28;20004;-62
2021/09/03 01:23:24;;;;;;;;;;;;;;;15.85;75.55;100518.91;4974801;28;19929;-61
2021/09/03 01:26:11;;;;;;;;;;;;;;;15.83;75.63;100513.63;4976495;28;19929;-61
2021/09/03 01:28:55;;;;;;;;;;;;;;;15.84;75.52;100511.91;4977103;28;20293;-61
2021/09/03 01:31:40;;;;;;;;;;;;;;;15.83;75.72;100515.38;4978378;28;19929;-62
2021/09/03 01:34:23;;;;;;;;;;;;;;;15.81;75.62;100498.81;4977513;28;19981;-62
2021/09/03 01:37:07;;;;;;;;;;;;;;;15.81;75.59;100509.25;4977442;28;19929;-61
2021/09/03 01:39:51;;;;;;;;;;;;;;;15.79;75.81;100493.59;4977214;28;20393;-63
2021/09/03 01:42:35;;;;;;;;;;;;;;;15.78;75.79;100509.25;4990607;28;19944;-63
2021/09/03 01:45:19;;;;;;;;;;;;;;;15.78;75.73;100507.53;4977757;28;20069;-63
2021/09/03 01:48:04;;;;;;;;;;;;;;;15.77;75.63;100504.91;4977782;28;19949;-63
2021/09/03 01:50:47;;;;;;;;;;;;;;;15.76;75.85;100496.19;4977270;28;19929;-63
2021/09/03 01:53:31;;;;;;;;;;;;;;;15.75;75.76;100488.34;4977363;28;19949;-63
2021/09/03 01:56:18;;;;;;;;;;;;;;;15.75;75.81;100490.94;4977022;28;19929;-63
2021/09/03 01:59:02;;;;;;;;;;;;;;;15.73;75.76;100490.97;4976770;28;19929;-63
2021/09/03 02:01:46;;;;;;;;;;;;;;;15.73;75.64;100500.53;4977285;28;19929;-63
2021/09/03 02:04:30;;;;;;;;;;;;;;;15.74;75.61;100497.03;4977559;28;19968;-63
2021/09/03 02:07:14;;;;;;;;;;;;;;;15.73;75.97;100495.28;4976862;28;19929;-63
2021/09/03 02:10:01;;;;;;;;;;;;;;;15.72;75.76;100494.44;4977578;28;19976;-63
2021/09/03 02:12:45;;;;;;;;;;;;;;;15.71;75.67;100495.31;4990125;28;20401;-63
2021/09/03 02:15:30;;;;;;;;;;;;;;;15.71;75.87;100489.22;4977039;28;19976;-63
2021/09/03 02:18:14;;;;;;;;;;;;;;;15.70;75.81;100490.09;4989848;28;19973;-63
2021/09/03 02:20:58;;;;;;;;;;;;;;;15.69;75.81;100502.25;4976344;28;19972;-63
2021/09/03 02:23:42;;;;;;;;;;;;;;;15.70;75.96;100495.31;4976731;28;20417;-63
2021/09/03 02:26:28;;;;;;;;;;;;;;;15.71;75.80;100491.84;4977372;28;19929;-63
2021/09/03 02:29:12;;;;;;;;;;;;;;;15.70;75.73;100490.09;4976507;28;20368;-63
2021/09/03 02:31:59;;;;;;;;;;;;;;;15.69;75.72;100486.59;4977312;28;19933;-63
2021/09/03 02:34:43;;;;;;;;;;;;;;;15.67;75.89;100484.00;4976755;28;19929;-63
2021/09/03 02:37:27;;;;;;;;;;;;;;;15.67;75.83;100478.75;4988896;28;20449;-63
2021/09/03 02:40:14;;;;;;;;;;;;;;;15.67;75.78;100472.66;4977109;28;19976;-63
2021/09/03 02:42:58;;;;;;;;;;;;;;;15.67;75.83;100483.09;4976546;28;19928;-63
2021/09/03 02:45:42;;;;;;;;;;;;;;;15.66;76.01;100479.63;4976416;28;19937;-63
2021/09/03 02:48:25;;;;;;;;;;;;;;;15.66;75.77;100481.34;4976322;28;20305;-63
2021/09/03 02:51:09;;;;;;;;;;;;;;;15.64;75.71;100465.69;4976213;28;19969;-64
2021/09/03 02:53:53;;;;;;;;;;;;;;;15.64;75.78;100467.44;4976413;28;19973;-63
2021/09/03 02:56:37;;;;;;;;;;;;;;;15.65;75.86;100458.69;4976041;28;19994;-62
2021/09/03 02:59:21;;;;;;;;;;;;;;;15.62;75.90;100459.56;4976593;28;19976;-63
2021/09/03 03:02:08;;;;;;;;;;;;;;;15.63;75.68;100455.25;4976379;28;19968;-63
2021/09/03 03:04:52;;;;;;;;;;;;;;;15.62;75.72;100453.50;4976123;28;19972;-63
2021/09/03 03:07:36;;;;;;;;;;;;;;;15.61;75.68;100455.22;4976275;28;20017;-63
2021/09/03 03:10:19;;;;;;;;;;;;;;;15.61;75.75;100446.53;4976359;28;19929;-63
2021/09/03 03:13:19;;;;;;;;;;;;;;;15.60;75.74;100448.25;4975707;28;20460;-63
2021/09/03 03:16:06;;;;;;;;;;;;;;;15.60;75.78;100444.78;4988985;28;19933;-63
2021/09/03 03:18:50;;;;;;;;;;;;;;;15.60;75.92;100436.94;4976002;28;19929;-63
2021/09/03 03:21:34;;;;;;;;;;;;;;;15.60;75.93;100436.94;4975751;28;19968;-63
2021/09/03 03:24:21;;;;;;;;;;;;;;;15.59;75.65;100440.44;4975839;28;19968;-63
2021/09/03 03:27:05;;;;;;;;;;;;;;;15.58;75.88;100430.84;4988465;28;19929;-63
2021/09/03 03:29:49;;;;;;;;;;;;;;;15.56;75.73;100432.56;4976086;28;19929;-63
2021/09/03 03:32:32;;;;;;;;;;;;;;;15.55;75.91;100436.06;4975496;28;20469;-63
2021/09/03 03:35:16;;;;;;;;;;;;;;;15.53;75.91;100426.47;4988601;28;20024;-63
2021/09/03 03:38:00;;;;;;;;;;;;;;;15.55;75.80;100431.72;4975678;28;20057;-63
2021/09/03 03:40:44;;;;;;;;;;;;;;;15.53;75.92;100426.47;4975834;28;19929;-63
2021/09/03 03:43:31;;;;;;;;;;;;;;;15.54;75.98;100429.97;4974532;28;19945;-63
2021/09/03 03:46:18;;;;;;;;;;;;;;;15.53;75.95;100421.25;4988206;28;19929;-63
2021/09/03 03:49:02;;;;;;;;;;;;;;;15.51;75.80;100420.38;4975016;28;19969;-63
2021/09/03 03:51:46;;;;;;;;;;;;;;;15.50;75.79;100416.00;4975383;28;20341;-63
2021/09/03 03:54:30;;;;;;;;;;;;;;;15.49;75.90;100414.28;4975769;28;19928;-63
2021/09/03 03:57:17;;;;;;;;;;;;;;;15.49;75.81;100411.66;4974967;28;19929;-63
2021/09/03 04:00:04;;;;;;;;;;;;;;;15.48;75.73;100417.78;4975596;28;19977;-61
2021/09/03 04:02:51;;;;;;;;;;;;;;;15.47;75.43;100409.91;4973896;28;19929;-63
2021/09/03 04:05:35;;;;;;;;;;;;;;;15.46;75.93;100416.91;4988463;28;20413;-64
2021/09/03 04:08:22;;;;;;;;;;;;;;;15.45;75.78;100417.78;4975094;28;19989;-63
2021/09/03 04:11:12;;;;;;;;;;;;;;;15.44;75.81;100410.81;4987955;28;20158;-61
2021/09/03 04:13:56;;;;;;;;;;;;;;;15.43;75.82;100409.06;4987781;28;20434;-62
2021/09/03 04:16:43;;;;;;;;;;;;;;;15.43;75.89;100413.38;4975225;28;19929;-62
2021/09/03 04:19:26;;;;;;;;;;;;;;;15.42;75.87;100409.03;4975418;28;19933;-61
2021/09/03 04:22:13;;;;;;;;;;;;;;;15.40;75.78;100409.03;4987373;28;19976;-62
2021/09/03 04:24:57;;;;;;;;;;;;;;;15.38;75.78;100402.94;4975159;28;20447;-61
2021/09/03 04:27:42;;;;;;;;;;;;;;;15.37;75.66;100411.63;4975470;28;19969;-61
2021/09/03 04:30:25;;;;;;;;;;;;;;;15.35;75.83;100408.16;4973874;28;19946;-61
2021/09/03 04:33:09;;;;;;;;;;;;;;;15.33;75.84;100407.31;4974846;28;19977;-62
2021/09/03 04:35:56;;;;;;;;;;;;;;;15.33;75.70;100405.56;4974431;28;19929;-61
2021/09/03 04:38:40;;;;;;;;;;;;;;;15.31;75.80;100406.41;4988029;28;19929;-61
2021/09/03 04:41:24;;;;;;;;;;;;;;;15.31;75.71;100403.81;4987704;28;20057;-61
2021/09/03 04:44:11;;;;;;;;;;;;;;;15.29;75.85;100405.53;4974434;28;19930;-61
2021/09/03 04:46:58;;;;;;;;;;;;;;;15.29;75.78;100405.53;4974787;28;19929;-62
2021/09/03 04:49:42;;;;;;;;;;;;;;;15.28;75.80;100402.03;4987588;28;20025;-62
2021/09/03 04:52:26;;;;;;;;;;;;;;;15.28;75.73;100401.19;4974691;28;19933;-62
2021/09/03 04:55:11;;;;;;;;;;;;;;;15.26;75.74;100392.47;4973451;28;19972;-62
2021/09/03 04:57:55;;;;;;;;;;;;;;;15.25;75.69;100396.84;4974736;28;20412;-61
2021/09/03 05:00:39;;;;;;;;;;;;;;;15.25;75.73;100395.94;4988895;28;19930;-62
2021/09/03 05:03:26;;;;;;;;;;;;;;;15.23;75.77;100391.59;4978417;28;19929;-63
2021/09/03 05:06:10;;;;;;;;;;;;;;;15.23;75.78;100396.81;4991383;28;20282;-63
2021/09/03 05:08:54;;;;;;;;;;;;;;;15.22;75.80;100384.63;4978557;28;19988;-64
2021/09/03 05:11:41;;;;;;;;;;;;;;;15.22;75.68;100389.00;4978055;28;20452;-63
2021/09/03 05:14:25;;;;;;;;;;;;;;;15.22;75.80;100383.78;4978353;28;19929;-61
2021/09/03 05:17:09;;;;;;;;;;;;;;;15.22;75.67;100389.00;4978012;28;19929;-62
2021/09/03 05:19:53;;;;;;;;;;;;;;;15.22;75.74;100392.47;4978510;28;19929;-61
2021/09/03 05:22:43;;;;;;;;;;;;;;;15.21;75.81;100385.50;4990754;28;20420;-62
2021/09/03 05:25:27;;;;;;;;;;;;;;;15.21;75.76;100390.72;4977482;28;20034;-62
2021/09/03 05:28:11;;;;;;;;;;;;;;;15.20;75.57;100394.19;4977900;28;19929;-62
2021/09/03 05:30:55;;;;;;;;;;;;;;;15.19;75.67;100402.88;4977385;28;19929;-62
2021/09/03 05:33:39;;;;;;;;;;;;;;;15.19;75.67;100399.44;4977174;28;19968;-62
2021/09/03 05:36:24;;;;;;;;;;;;;;;15.19;75.75;100394.19;4978004;28;19929;-62
2021/09/03 05:39:07;;;;;;;;;;;;;;;15.19;75.81;100405.50;4977429;28;19929;-62
2021/09/03 05:41:51;;;;;;;;;;;;;;;15.18;75.65;100406.38;4991049;28;19929;-61
2021/09/03 05:44:35;;;;;;;;;;;;;;;15.18;75.73;100408.97;4990632;28;19949;-62
2021/09/03 05:47:19;;;;;;;;;;;;;;;15.17;75.78;100403.75;4977660;28;19929;-62
2021/09/03 05:50:06;;;;;;;;;;;;;;;15.17;75.72;100409.00;4977298;28;20348;-61
2021/09/03 05:52:50;;;;;;;;;;;;;;;15.17;75.74;100409.88;4976432;28;19929;-62
2021/09/03 05:55:34;;;;;;;;;;;;;;;15.16;75.78;100402.91;4977125;28;19945;-61
2021/09/03 05:58:18;;;;;;;;;;;;;;;15.17;75.80;100404.66;4977521;28;19929;-62
2021/09/03 06:01:02;;;;;;;;;;;;;;;15.17;75.79;100401.16;4977744;28;19929;-61
2021/09/03 06:03:46;;;;;;;;;;;;;;;15.18;75.76;100405.50;4977718;28;19929;-62
2021/09/03 06:06:30;;;;;;;;;;;;;;;15.17;75.74;100398.53;4977212;28;20069;-62
2021/09/03 06:09:14;;;;;;;;;;;;;;;15.19;75.75;100399.44;4977540;28;19929;-61
2021/09/03 06:11:58;;;;;;;;;;;;;;;15.19;75.73;100400.28;4977011;28;19991;-62
2021/09/03 06:14:47;;;;;;;;;;;;;;;15.19;75.78;100396.81;4989979;28;19930;-62
2021/09/03 06:17:32;;;;;;;;;;;;;;;15.20;75.73;100395.94;4975959;28;19968;-62
2021/09/03 06:20:18;;;;;;;;;;;;;;;15.20;75.84;100391.59;4977111;28;19929;-63
2021/09/03 06:23:06;;;;;;;;;;;;;;;15.23;75.80;100391.59;4975957;28;20293;-62
2021/09/03 06:25:49;;;;;;;;;;;;;;;15.25;75.94;100393.34;4977060;28;19937;-62
2021/09/03 06:28:36;;;;;;;;;;;;;;;15.25;75.84;100388.13;4976811;28;19929;-62
2021/09/03 06:31:20;;;;;;;;;;;;;;;15.26;75.88;100400.31;4975898;28;19929;-62
2021/09/03 06:34:07;;;;;;;;;;;;;;;15.27;75.94;100396.84;4989996;28;19981;-62
2021/09/03 06:36:54;;;;;;;;;;;;;;;15.29;75.75;100397.72;4975724;28;19945;-62
2021/09/03 06:39:45;;;;;;;;;;;;;;;15.29;75.94;100395.09;4976367;28;19937;-62
2021/09/03 06:42:30;;;;;;;;;;;;;;;15.30;75.85;100402.94;4976078;28;20347;-62
2021/09/03 06:45:17;;;;;;;;;;;;;;;15.31;75.98;100403.81;4989379;28;20064;-63
2021/09/03 06:48:01;;;;;;;;;;;;;;;15.32;75.97;100409.03;4975719;28;19945;-63
2021/09/03 06:50:45;;;;;;;;;;;;;;;15.33;75.84;100404.69;4975877;28;19929;-63
2021/09/03 06:53:29;;;;;;;;;;;;;;;15.34;76.00;100409.00;4989396;28;20033;-63
2021/09/03 06:56:16;;;;;;;;;;;;;;;15.34;75.98;100407.28;4976233;28;20303;-63
2021/09/03 06:59:03;;;;;;;;;;;;;;;15.36;76.08;100412.50;4975314;28;19932;-63
2021/09/03 07:01:47;;;;;;;;;;;;;;;15.39;76.07;100409.91;4976060;28;20337;-64
2021/09/03 07:04:34;;;;;;;;;;;;;;;15.41;76.10;100407.31;4976265;28;19929;-64
2021/09/03 07:07:21;;;;;;;;;;;;;;;15.42;76.10;100399.47;4976227;28;20000;-64
2021/09/03 07:10:05;;;;;;;;;;;;;;;15.42;76.08;100402.09;4976295;28;19947;-63
2021/09/03 07:12:52;;;;;;;;;;;;;;;15.43;76.11;100396.00;4976350;28;20377;-63
2021/09/03 07:15:39;;;;;;;;;;;;;;;15.46;76.01;100395.13;4975939;28;19933;-63
2021/09/03 07:18:26;;;;;;;;;;;;;;;15.46;76.19;100401.22;4988824;28;19973;-63
2021/09/03 07:21:13;;;;;;;;;;;;;;;15.48;75.89;100402.09;4975917;28;19929;-63
2021/09/03 07:23:59;;;;;;;;;;;;;;;15.49;76.06;100413.41;4974339;28;20136;-63
2021/09/03 07:26:43;;;;;;;;;;;;;;;15.50;76.07;100399.47;4988592;28;19929;-63
2021/09/03 07:29:27;;;;;;;;;;;;;;;15.52;76.05;100405.59;4975483;28;20308;-63
2021/09/03 07:32:17;;;;;;;;;;;;;;;15.53;75.95;100402.97;4975302;28;20015;-63
2021/09/03 07:35:01;;;;;;;;;;;;;;;15.54;75.91;100403.84;4975166;28;19929;-63
2021/09/03 07:37:48;;;;;;;;;;;;;;;15.56;75.90;100393.41;4975300;28;19968;-63
2021/09/03 07:40:35;;;;;;;;;;;;;;;15.58;75.83;100397.75;4975901;28;19928;-63
2021/09/03 07:43:19;;;;;;;;;;;;;;;15.59;76.00;100396.00;4975818;28;19968;-63
2021/09/03 07:46:08;;;;;;;;;;;;;;;15.61;75.84;100395.13;4975522;28;19929;-63
2021/09/03 07:48:53;;;;;;;;;;;;;;;15.63;75.94;100392.53;4988592;28;20019;-63
2021/09/03 07:51:39;;;;;;;;;;;;;;;15.64;75.87;100394.28;4975656;28;20408;-63
2021/09/03 07:54:29;;;;;;;;;;;;;;;15.66;75.87;100395.13;4975418;28;19929;-63
2021/09/03 07:57:14;;;;;;;;;;;;;;;15.68;75.93;100390.78;4974062;28;19929;-63
2021/09/03 07:59:58;;;;;;;;;;;;;;;15.68;75.99;100391.66;4987920;28;19929;-63
2021/09/03 08:02:42;;;;;;;;;;;;;;;15.70;75.97;100386.44;4988046;28;20350;-63
2021/09/03 08:05:29;;;;;;;;;;;;;;;15.72;75.99;100389.91;4975629;28;19977;-63
2021/09/03 08:08:16;;;;;;;;;;;;;;;15.73;75.98;100386.44;4975419;28;19928;-63
2021/09/03 08:11:00;;;;;;;;;;;;;;;15.75;75.94;100387.31;4974924;28;20297;-63
2021/09/03 08:13:44;;;;;;;;;;;;;;;15.77;75.80;100382.06;4988000;28;20080;-63
2021/09/03 08:16:28;;;;;;;;;;;;;;;15.77;75.96;100385.59;4975184;28;19929;-63
2021/09/03 08:19:12;;;;;;;;;;;;;;;15.79;75.76;100373.38;4974340;28;19929;-63
2021/09/03 08:21:58;;;;;;;;;;;;;;;15.82;75.79;100383.81;4975285;28;19929;-62
2021/09/03 08:24:42;;;;;;;;;;;;;;;15.83;75.75;100388.16;4974687;28;20449;-62
2021/09/03 08:27:26;;;;;;;;;;;;;;;15.87;75.79;100380.38;4974774;28;20408;-62
2021/09/03 08:30:13;;;;;;;;;;;;;;;15.89;75.80;100378.63;4974782;28;20416;-62
2021/09/03 08:32:57;;;;;;;;;;;;;;;15.91;75.85;100382.13;4975011;28;20021;-62
2021/09/03 08:35:41;;;;;;;;;;;;;;;15.93;75.68;100381.25;4978387;28;20282;-62
2021/09/03 08:38:25;;;;;;;;;;;;;;;15.96;75.87;100391.69;4979017;28;19929;-62
2021/09/03 08:41:12;;;;;;;;;;;;;;;15.97;75.79;100379.47;4978455;28;19969;-61
2021/09/03 08:43:57;;;;;;;;;;;;;;;16.00;75.68;100381.25;4978081;28;19973;-62
2021/09/03 08:46:45;;;;;;;;;;;;;;;16.01;75.71;100378.63;4978126;28;20024;-62
2021/09/03 08:49:29;;;;;;;;;;;;;;;16.04;75.58;100383.00;4978105;28;20013;-61
2021/09/03 08:52:13;;;;;;;;;;;;;;;16.07;75.55;100383.84;4991529;28;19929;-62
2021/09/03 08:54:59;;;;;;;;;;;;;;;16.09;75.54;100381.22;4978491;28;19933;-62
2021/09/03 08:57:46;;;;;;;;;;;;;;;16.11;75.60;100382.97;4977163;28;19929;-63
2021/09/03 09:00:33;;;;;;;;;;;;;;;16.14;75.61;100384.72;4977641;28;19929;-62
2021/09/03 09:03:23;;;;;;;;;;;;;;;16.17;75.41;100382.09;4978341;28;19933;-62
2021/09/03 09:06:07;;;;;;;;;;;;;;;16.20;75.65;100389.06;4991366;28;19933;-63
2021/09/03 09:08:55;;;;;;;;;;;;;;;16.21;75.38;100385.56;4978325;28;19930;-62
2021/09/03 09:11:40;;;;;;;;;;;;;;;16.24;75.38;100380.34;4978650;28;19977;-62
2021/09/03 09:14:23;;;;;;;;;;;;;;;16.27;75.42;100378.59;4977945;28;19928;-62
2021/09/03 09:17:07;;;;;;;;;;;;;;;16.31;75.46;100379.44;4977903;28;19929;-62
2021/09/03 09:19:51;;;;;;;;;;;;;;;16.34;75.49;100384.66;4978225;28;20440;-62
2021/09/03 09:22:55;;;;;;;;;;;;;;;16.36;75.35;100377.69;4977894;28;19930;-62
2021/09/03 09:25:39;;;;;;;;;;;;;;;16.39;75.50;100375.06;4977189;28;19972;-62
2021/09/03 09:28:23;;;;;;;;;;;;;;;16.42;75.41;100368.94;4978061;28;19929;-64
2021/09/03 09:31:10;;;;;;;;;;;;;;;16.44;75.44;100368.06;4977912;28;19932;-63
2021/09/03 09:33:58;;;;;;;;;;;;;;;16.48;75.34;100368.94;4977802;28;20298;-63
2021/09/03 09:36:44;;;;;;;;;;;;;;;16.50;75.30;100363.69;4977707;28;19929;-64
2021/09/03 09:39:40;;;;;;;;;;;;;;;16.52;75.45;100370.66;4976754;28;19972;-62
2021/09/03 09:42:24;;;;;;;;;;;;;;;16.55;75.32;100362.78;4990834;28;19929;-63
2021/09/03 09:45:16;;;;;;;;;;;;;;;16.57;75.36;100357.59;4977513;28;19929;-63
2021/09/03 09:48:02;;;;;;;;;;;;;;;16.59;75.22;100359.31;4977810;28;19928;-63
2021/09/03 09:50:46;;;;;;;;;;;;;;;16.61;75.36;100354.06;4977796;28;19929;-63
2021/09/03 09:53:30;;;;;;;;;;;;;;;16.64;75.36;100351.44;4977422;28;19973;-63
2021/09/03 09:56:14;;;;;;;;;;;;;;;16.67;75.44;100355.78;4977561;28;19977;-63
2021/09/03 09:59:02;;;;;;;;;;;;;;;16.69;75.22;100351.41;4977819;28;19929;-63
2021/09/03 10:01:53;;;;;;;;;;;;;;;16.72;75.44;100344.44;4976348;28;19929;-63
2021/09/03 10:04:38;;;;;;;;;;;;;;;16.74;75.33;100347.03;4977361;28;19929;-64
2021/09/03 10:07:24;;;;;;;;;;;;;;;16.77;75.39;100343.53;4977245;28;19929;-63
2021/09/03 10:10:16;;;;;;;;;;;;;;;16.78;75.27;100343.53;4990111;28;19929;-63
2021/09/03 10:13:00;;;;;;;;;;;;;;;16.81;75.21;100340.03;4975938;28;19973;-63
2021/09/03 10:15:44;;;;;;;;;;;;;;;16.82;75.31;100333.91;4976447;28;20321;-63
2021/09/03 10:18:28;;;;;;;;;;;;;;;16.86;75.49;100333.88;4977277;28;19928;-64
2021/09/03 10:21:15;;;;;;;;;;;;;;;16.88;75.45;100332.13;4976992;28;19929;-63
2021/09/03 10:24:08;;;;;;;;;;;;;;;16.90;75.43;100334.72;4976395;28;19929;-63
2021/09/03 10:26:53;;;;;;;;;;;;;;;16.93;75.50;100328.63;4989658;28;20034;-63
2021/09/03 10:29:40;;;;;;;;;;;;;;;16.94;75.47;100339.06;4976311;28;20043;-63
2021/09/03 10:32:25;;;;;;;;;;;;;;;16.96;75.19;100333.88;4977093;28;19976;-63
2021/09/03 10:35:16;;;;;;;;;;;;;;;16.97;75.32;100328.63;4976707;28;20357;-64
2021/09/03 10:38:26;;;;;;;;;;;;;;;16.99;75.43;100320.75;4975407;28;19929;-63
2021/09/03 10:41:33;;;;;;;;;;;;;;;17.00;75.36;100315.53;4976209;28;19929;-62
2021/09/03 10:44:17;;;;;;;;;;;;;;;17.03;75.24;100323.38;4977040;28;19948;-61
2021/09/03 10:47:00;;;;;;;;;;;;;;;17.04;75.40;100321.59;4976530;28;19928;-62
2021/09/03 10:49:58;;;;;;;;;;;;;;;17.05;75.37;100310.25;4976740;28;20405;-62
2021/09/03 10:53:00;;;;;;;;;;;;;;;17.05;75.35;100313.72;4975929;28;20278;-62
2021/09/03 10:55:56;;;;;;;;;;;;;;;17.08;75.24;100305.00;4976408;28;20333;-62
2021/09/03 10:58:45;;;;;;;;;;;;;;;17.11;75.23;100297.13;4976288;28;19929;-62
2021/09/03 11:01:30;;;;;;;;;;;;;;;17.14;75.36;100301.47;4976460;28;19945;-64
2021/09/03 11:04:17;;;;;;;;;;;;;;;17.16;75.37;100303.19;4976716;28;19928;-63
2021/09/03 11:07:10;;;;;;;;;;;;;;;17.17;75.26;100294.44;4976569;28;20270;-64
2021/09/03 11:09:58;;;;;;;;;;;;;;;17.20;75.30;100283.09;4989547;28;20382;-63
2021/09/03 11:12:52;;;;;;;;;;;;;;;17.22;75.41;100288.31;4989294;28;20286;-63
2021/09/03 11:15:39;;;;;;;;;;;;;;;17.24;75.30;100287.41;4989261;28;19980;-63
2021/09/03 11:18:23;;;;;;;;;;;;;;;17.26;75.22;100280.41;4989243;28;19928;-63
2021/09/03 11:21:09;;;;;;;;;;;;;;;17.27;75.41;100279.53;4976078;28;19972;-62
2021/09/03 11:23:56;;;;;;;;;;;;;;;17.29;75.33;100275.16;4988649;28;19928;-62
2021/09/03 11:26:46;;;;;;;;;;;;;;;17.30;75.32;100276.00;4975545;28;20286;-61
2021/09/03 11:29:35;;;;;;;;;;;;;;;17.32;75.33;100275.13;4975993;28;19929;-62
2021/09/03 11:32:20;;;;;;;;;;;;;;;17.33;75.33;100270.75;4988904;28;20389;-61
2021/09/03 11:35:11;;;;;;;;;;;;;;;17.34;75.45;100272.50;4976132;28;19933;-62
2021/09/03 11:37:57;;;;;;;;;;;;;;;17.38;75.29;100275.94;4974640;28;19976;-62
2021/09/03 11:40:46;;;;;;;;;;;;;;;17.38;75.38;100274.22;4988782;28;19972;-62
2021/09/03 11:43:31;;;;;;;;;;;;;;;17.41;75.32;100274.19;4988576;28;20397;-62
2021/09/03 11:46:17;;;;;;;;;;;;;;;17.45;75.36;100262.78;4988446;28;19929;-62
2021/09/03 11:49:04;;;;;;;;;;;;;;;17.46;75.46;100256.66;4975476;28;19976;-62
2021/09/03 11:52:02;;;;;;;;;;;;;;;17.49;75.35;100261.88;4974922;28;20433;-62
2021/09/03 11:54:49;;;;;;;;;;;;;;;17.49;75.42;100256.63;4975292;28;19929;-62
2021/09/03 11:57:52;;;;;;;;;;;;;;;17.51;75.38;100248.78;4974961;28;19972;-62
2021/09/03 12:00:41;;;;;;;;;;;;;;;17.54;75.31;100248.72;4975613;28;19929;-62
2021/09/03 12:03:28;;;;;;;;;;;;;;;17.54;75.38;100248.72;4975288;28;20349;-62
2021/09/03 12:06:18;;;;;;;;;;;;;;;17.55;75.44;100245.22;4975515;28;19972;-62
2021/09/03 12:09:22;;;;;;;;;;;;;;;17.55;75.39;100247.84;4987789;28;19929;-62
2021/09/03 12:12:12;;;;;;;;;;;;;;;17.57;75.57;100243.47;4975658;28;20031;-62
2021/09/03 12:15:01;;;;;;;;;;;;;;;17.59;75.61;100244.31;4988580;28;19930;-62
2021/09/03 12:17:48;;;;;;;;;;;;;;;17.60;75.44;100245.19;4973989;28;19929;-62
2021/09/03 12:20:34;;;;;;;;;;;;;;;17.60;75.28;100238.19;4987738;28;19964;-62
2021/09/03 12:23:19;;;;;;;;;;;;;;;17.62;75.29;100233.81;4974689;28;19977;-63
2021/09/03 12:26:03;;;;;;;;;;;;;;;17.62;75.28;100236.44;4974649;28;19928;-62
2021/09/03 12:28:52;;;;;;;;;;;;;;;17.63;75.45;100232.94;4975030;28;20002;-62
2021/09/03 12:31:39;;;;;;;;;;;;;;;17.64;75.27;100226.81;4974530;28;19929;-62
2021/09/03 12:34:27;;;;;;;;;;;;;;;17.66;75.32;100229.41;4974518;28;19930;-62
2021/09/03 12:37:13;;;;;;;;;;;;;;;17.68;75.50;100227.66;4987824;28;19984;-62
2021/09/03 12:40:04;;;;;;;;;;;;;;;17.70;75.44;100222.38;4974959;28;20312;-62
2021/09/03 12:42:51;;;;;;;;;;;;;;;17.73;75.29;100224.97;4974043;28;19928;-62
2021/09/03 12:45:45;;;;;;;;;;;;;;;17.75;75.45;100231.06;4988094;28;19944;-62
2021/09/03 12:48:31;;;;;;;;;;;;;;;17.78;75.39;100224.03;4987658;28;19929;-62
2021/09/03 12:51:20;;;;;;;;;;;;;;;17.79;75.36;100225.75;4988221;28;20436;-62
2021/09/03 12:54:05;;;;;;;;;;;;;;;17.81;75.43;100217.91;4974234;28;19968;-62
2021/09/03 12:56:49;;;;;;;;;;;;;;;17.83;75.48;100218.72;4974465;28;19988;-64
2021/09/03 12:59:33;;;;;;;;;;;;;;;17.85;75.44;100219.59;4987724;28;20367;-62
2021/09/03 13:02:17;;;;;;;;;;;;;;;17.87;75.18;100204.72;4987419;28;20151;-62
2021/09/03 13:05:08;;;;;;;;;;;;;;;17.87;75.17;100211.72;4987499;28;19973;-63
2021/09/03 13:07:56;;;;;;;;;;;;;;;17.88;75.30;100208.22;4987973;28;19937;-62
2021/09/03 13:10:39;;;;;;;;;;;;;;;17.87;75.26;100199.47;4987358;28;20085;-62
2021/09/03 13:13:23;;;;;;;;;;;;;;;17.87;75.06;100196.84;4974338;28;19929;-61
2021/09/03 13:16:10;;;;;;;;;;;;;;;17.89;75.13;100202.94;4974720;28;19980;-62
2021/09/03 13:18:57;;;;;;;;;;;;;;;17.92;75.24;100199.41;4974081;28;19982;-62
2021/09/03 13:21:42;;;;;;;;;;;;;;;17.94;75.02;100190.66;4975943;28;20377;-62
2021/09/03 13:24:26;;;;;;;;;;;;;;;17.96;75.14;100193.25;4978565;28;20425;-61
2021/09/03 13:27:13;;;;;;;;;;;;;;;17.96;74.98;100188.88;4978220;28;20404;-61
2021/09/03 13:29:59;;;;;;;;;;;;;;;17.98;74.92;100185.41;4991151;28;20321;-62
2021/09/03 13:32:48;;;;;;;;;;;;;;;18.00;74.95;100181.00;4977480;28;19969;-62
2021/09/03 13:35:35;;;;;;;;;;;;;;;18.01;75.01;100187.97;4977371;28;19928;-62
2021/09/03 13:38:19;;;;;;;;;;;;;;;18.00;75.01;100184.50;4977419;28;19929;-61
2021/09/03 13:41:03;;;;;;;;;;;;;;;18.01;74.93;100174.88;4978121;28;20020;-61
2021/09/03 13:43:47;;;;;;;;;;;;;;;18.02;74.92;100172.25;4977793;28;20297;-62
2021/09/03 13:46:31;;;;;;;;;;;;;;;18.03;74.93;100171.34;4977782;28;20365;-61
2021/09/03 13:49:18;;;;;;;;;;;;;;;18.04;74.72;100172.22;4977671;28;19929;-63
2021/09/03 13:52:02;;;;;;;;;;;;;;;18.04;74.49;100159.09;4977158;28;19972;-62
2021/09/03 13:54:46;;;;;;;;;;;;;;;18.03;74.47;100158.25;4977636;28;20391;-62
2021/09/03 13:57:30;;;;;;;;;;;;;;;18.03;74.40;100159.97;4977457;28;19976;-62
2021/09/03 14:00:16;;;;;;;;;;;;;;;18.03;74.30;100154.75;4977226;28;19929;-62
2021/09/03 14:03:05;;;;;;;;;;;;;;;18.02;74.29;100150.38;4990346;28;19929;-61
2021/09/03 14:05:51;;;;;;;;;;;;;;;18.03;74.14;100146.88;4990273;28;19976;-62
2021/09/03 14:08:42;;;;;;;;;;;;;;;18.03;74.41;100144.25;4977278;28;20413;-62
2021/09/03 14:11:29;;;;;;;;;;;;;;;18.06;74.27;100138.97;4976244;28;19969;-61